Time;durP1;ratioP1;P1;durP2;ratioP2;P2;SDS_P1;SDS_P2;PMS_P1;PMS_P2;Temp;Humidity;BMP_temperature;BMP_pressure;BME280_temperature;BME280_humidity;BME280_pressure;Samples;Min_cycle;Max_cycle;Signal;HPM_P1;HPM_P2
2022/12/14 00:00:50;;;;;;;32.50;16.45;;;0.00;99.90;;;;;;5074674;28;20016;-76
2022/12/14 00:03:16;;;;;;;33.88;15.75;;;0.00;99.90;;;;;;5074179;28;20388;-77
2022/12/14 00:05:43;;;;;;;29.15;15.60;;;0.20;99.90;;;;;;5073035;28;20021;-77
2022/12/14 00:08:09;;;;;;;29.88;15.32;;;0.10;99.90;;;;;;5074472;28;20021;-76
2022/12/14 00:10:37;;;;;;;32.40;15.88;;;0.10;99.90;;;;;;5074144;28;20492;-75
2022/12/14 00:13:04;;;;;;;25.40;14.50;;;0.00;99.90;;;;;;5074386;28;20063;-75
2022/12/14 00:15:29;;;;;;;34.13;15.10;;;0.00;99.90;;;;;;5073998;28;20055;-75
2022/12/14 00:17:55;;;;;;;29.88;16.25;;;0.10;99.90;;;;;;5073868;28;20381;-75
2022/12/14 00:20:22;;;;;;;30.60;15.80;;;0.00;99.90;;;;;;5074260;28;20469;-76
2022/12/14 00:22:48;;;;;;;34.20;16.02;;;0.00;99.90;;;;;;5072823;28;20441;-75
2022/12/14 00:25:13;;;;;;;26.77;14.50;;;-0.20;99.90;;;;;;5072786;28;20087;-75
2022/12/14 00:27:43;;;;;;;29.27;15.88;;;-0.30;99.90;;;;;;5074111;28;20024;-75
2022/12/14 00:30:11;;;;;;;36.30;16.38;;;-0.30;99.90;;;;;;5072765;28;20116;-75
2022/12/14 00:32:37;;;;;;;31.77;16.17;;;-0.10;99.90;;;;;;5073394;28;20051;-74
2022/12/14 00:35:03;;;;;;;39.00;17.30;;;-0.20;99.90;;;;;;5073843;28;20068;-75
2022/12/14 00:37:29;;;;;;;24.75;14.50;;;-0.20;99.90;;;;;;5073744;28;20031;-74
2022/12/14 00:39:55;;;;;;;32.95;15.95;;;0.00;99.90;;;;;;5073690;28;20103;-75
2022/12/14 00:42:21;;;;;;;29.85;14.23;;;-0.20;99.90;;;;;;5073895;28;20029;-76
2022/12/14 00:44:46;;;;;;;30.77;16.85;;;-0.40;99.90;;;;;;5073486;28;20044;-75
2022/12/14 00:47:12;;;;;;;29.77;15.32;;;-0.30;99.90;;;;;;5073662;28;20028;-75
2022/12/14 00:49:38;;;;;;;40.22;15.13;;;-0.20;99.90;;;;;;5073258;28;20106;-75
2022/12/14 00:52:04;;;;;;;33.47;16.77;;;-0.10;99.90;;;;;;5073783;28;20031;-75
2022/12/14 00:54:29;;;;;;;28.27;15.82;;;0.10;99.90;;;;;;5072259;28;20111;-75
2022/12/14 00:56:55;;;;;;;31.17;15.43;;;0.10;99.90;;;;;;5073148;28;20112;-75
2022/12/14 00:59:21;;;;;;;28.30;14.63;;;0.00;99.90;;;;;;5073336;28;20056;-75
2022/12/14 01:01:47;;;;;;;32.42;15.07;;;-0.10;99.90;;;;;;5072552;28;20545;-75
2022/12/14 01:04:16;;;;;;;32.03;17.05;;;-0.20;99.90;;;;;;5080838;28;20025;-75
2022/12/14 01:06:46;;;;;;;33.58;15.15;;;-0.20;99.90;;;;;;5073285;28;20124;-76
2022/12/14 01:09:12;;;;;;;32.92;15.35;;;-0.10;99.90;;;;;;5071724;28;20020;-75
2022/12/14 01:11:39;;;;;;;28.52;16.20;;;-0.10;99.90;;;;;;5073211;28;20074;-75
2022/12/14 01:14:05;;;;;;;31.15;15.73;;;-0.20;99.90;;;;;;5071693;28;20032;-75
2022/12/14 01:16:31;;;;;;;36.83;16.73;;;-0.10;99.90;;;;;;5073187;28;20372;-75
2022/12/14 01:18:59;;;;;;;30.50;15.50;;;-0.30;99.90;;;;;;5073583;28;20025;-75
2022/12/14 01:21:25;;;;;;;28.20;14.95;;;-0.20;99.90;;;;;;5073103;28;20043;-75
2022/12/14 01:23:53;;;;;;;29.88;15.65;;;-0.10;99.90;;;;;;5073084;28;20468;-75
2022/12/14 01:26:20;;;;;;;32.75;14.82;;;-0.10;99.90;;;;;;5072828;28;20024;-75
2022/12/14 01:28:51;;;;;;;28.73;15.60;;;0.10;99.90;;;;;;5071652;28;20020;-75
2022/12/14 01:31:20;;;;;;;27.35;15.52;;;0.20;99.90;;;;;;5072688;28;20160;-75
2022/12/14 01:33:47;;;;;;;28.13;15.05;;;0.20;99.90;;;;;;5073089;28;20028;-75
2022/12/14 01:36:19;;;;;;;32.50;16.30;;;0.10;99.90;;;;;;5072700;28;20044;-75
2022/12/14 01:38:45;;;;;;;31.10;15.82;;;0.10;99.90;;;;;;5072879;28;20522;-75
2022/12/14 01:41:29;;;;;;;29.70;14.95;;;0.10;99.90;;;;;;5072613;28;20169;-75
2022/12/14 01:43:57;;;;;;;31.05;15.43;;;0.10;99.90;;;;;;5072616;28;20025;-75
2022/12/14 01:46:34;;;;;;;30.92;15.18;;;0.00;99.90;;;;;;5071273;28;20366;-75
2022/12/14 01:49:13;;;;;;;26.70;14.13;;;0.00;99.90;;;;;;5072043;28;20029;-75
2022/12/14 01:51:42;;;;;;;28.23;14.98;;;0.10;99.90;;;;;;5072172;28;20027;-75
2022/12/14 01:54:11;;;;;;;31.65;15.15;;;0.00;99.90;;;;;;5072777;28;20113;-75
2022/12/14 01:56:40;;;;;;;32.60;15.57;;;0.00;99.90;;;;;;5073336;28;20159;-74
2022/12/14 01:59:11;;;;;;;29.90;14.98;;;0.10;99.90;;;;;;5072317;28;20081;-75
2022/12/14 02:01:37;;;;;;;33.80;16.80;;;0.00;99.90;;;;;;5077377;28;20116;-75
2022/12/14 02:04:04;;;;;;;28.90;15.27;;;0.10;99.90;;;;;;5079217;28;20512;-76
2022/12/14 02:06:35;;;;;;;27.52;15.40;;;0.00;99.90;;;;;;5079027;28;20016;-75
2022/12/14 02:09:04;;;;;;;29.70;15.18;;;0.10;99.90;;;;;;5078045;28;20384;-75
2022/12/14 02:11:39;;;;;;;28.17;14.95;;;0.10;99.90;;;;;;5079147;28;20024;-75
2022/12/14 02:14:05;;;;;;;29.92;14.90;;;0.10;99.90;;;;;;5078659;28;20051;-76
2022/12/14 02:16:31;;;;;;;30.92;15.75;;;0.10;99.90;;;;;;5078892;28;20469;-75
2022/12/14 02:18:57;;;;;;;33.85;16.48;;;0.10;99.90;;;;;;5079202;28;20036;-75
2022/12/14 02:21:30;;;;;;;30.65;15.60;;;0.10;99.90;;;;;;5077746;28;20500;-75
2022/12/14 02:24:04;;;;;;;29.50;13.70;;;-0.20;99.90;;;;;;5079220;28;20028;-75
2022/12/14 02:26:33;;;;;;;30.95;14.98;;;-0.50;99.90;;;;;;5078959;28;20536;-75
2022/12/14 02:29:32;;;;;;;27.98;15.45;;;-0.80;99.90;;;;;;5079028;28;20017;-75
2022/12/14 02:32:17;;;;;;;30.73;15.52;;;-0.60;99.90;;;;;;5077570;28;20071;-75
2022/12/14 02:35:15;;;;;;;31.40;15.68;;;-0.40;99.90;;;;;;5078884;28;20044;-75
2022/12/14 02:38:06;;;;;;;30.20;15.85;;;-0.30;99.90;;;;;;5063798;28;20036;-75
2022/12/14 02:40:42;;;;;;;29.65;15.65;;;-0.20;99.90;;;;;;5077931;28;20086;-75
2022/12/14 02:43:23;;;;;;;27.63;15.02;;;0.10;99.90;;;;;;5078586;28;20028;-75
2022/12/14 02:45:56;;;;;;;30.33;13.90;;;0.10;99.90;;;;;;5065171;28;20032;-75
2022/12/14 02:48:25;;;;;;;29.80;15.23;;;0.10;99.90;;;;;;5078863;28;20036;-75
2022/12/14 02:51:23;;;;;;;29.50;15.68;;;0.10;99.90;;;;;;5078709;28;20040;-75
2022/12/14 02:54:15;;;;;;;29.08;14.85;;;0.20;99.90;;;;;;5070624;28;20045;-75
2022/12/14 02:57:00;;;;;;;29.20;14.68;;;0.00;99.90;;;;;;5060463;28;20041;-76
2022/12/14 02:59:27;;;;;;;28.58;15.35;;;-0.10;99.90;;;;;;5078839;28;20098;-75
2022/12/14 03:01:54;;;;;;;28.85;15.32;;;-0.10;99.90;;;;;;5078765;28;20035;-74
2022/12/14 03:04:20;;;;;;;29.15;15.95;;;0.00;99.90;;;;;;5077310;28;20095;-76
2022/12/14 03:07:01;;;;;;;26.15;14.65;;;0.00;99.90;;;;;;5077398;28;20457;-76
2022/12/14 03:09:29;;;;;;;27.05;15.35;;;0.10;99.90;;;;;;5077617;28;20107;-76
2022/12/14 03:12:04;;;;;;;30.27;15.57;;;0.00;99.90;;;;;;5076843;28;20034;-75
2022/12/14 03:14:43;;;;;;;29.17;15.15;;;0.20;99.90;;;;;;5073771;28;20476;-76
2022/12/14 03:17:16;;;;;;;36.22;15.18;;;0.10;99.90;;;;;;5075285;28;20120;-75
2022/12/14 03:20:08;;;;;;;32.72;16.77;;;0.20;99.90;;;;;;5075478;28;20033;-76
2022/12/14 03:22:46;;;;;;;;;;;0.20;99.90;;;;;;5075334;28;20507;-75
2022/12/14 03:25:49;;;;;;;30.65;16.00;;;0.10;99.90;;;;;;5062577;28;19912;-74
2022/12/14 03:28:29;;;;;;;28.27;14.70;;;0.00;99.90;;;;;;5071847;28;20123;-76
2022/12/14 03:31:05;;;;;;;30.77;14.95;;;0.10;99.90;;;;;;5075214;28;20040;-76
2022/12/14 03:33:35;;;;;;;26.40;14.80;;;0.20;99.90;;;;;;5073884;28;20113;-75
2022/12/14 03:36:15;;;;;;;34.78;15.60;;;0.30;99.90;;;;;;5073737;28;20079;-75
2022/12/14 03:38:44;;;;;;;26.88;14.50;;;0.40;99.90;;;;;;5075055;28;20031;-76
2022/12/14 03:41:33;;;;;;;28.02;14.70;;;0.30;99.90;;;;;;5074707;28;20465;-75
2022/12/14 03:44:08;;;;;;;29.63;15.18;;;0.20;99.90;;;;;;5063100;28;20025;-76
2022/12/14 03:46:52;;;;;;;28.92;15.55;;;0.10;99.90;;;;;;5074675;28;20032;-75
2022/12/14 03:49:26;;;;;;;27.20;14.15;;;0.00;99.90;;;;;;5074704;28;20024;-75
2022/12/14 03:52:07;;;;;;;28.92;14.50;;;-0.10;99.90;;;;;;5074517;28;20051;-75
2022/12/14 03:54:58;;;;;;;26.80;13.68;;;0.00;99.90;;;;;;5073053;28;20044;-76
2022/12/14 03:57:54;;;;;;;26.85;14.18;;;0.00;99.90;;;;;;5071371;28;20032;-75
2022/12/14 04:00:23;;;;;;;26.85;14.77;;;0.10;99.90;;;;;;5074653;28;20029;-76
2022/12/14 04:03:14;;;;;;;27.02;14.60;;;0.30;99.90;;;;;;5074354;28;20021;-76
2022/12/14 04:05:50;;;;;;;24.90;14.77;;;0.40;99.90;;;;;;5073156;28;20036;-75
2022/12/14 04:08:47;;;;;;;25.95;14.48;;;0.60;99.90;;;;;;5073322;28;20052;-75
2022/12/14 04:20:15;;;;;;;26.63;14.65;;;0.10;99.90;;;;;;5074055;28;20082;-75
2022/12/14 04:22:46;;;;;;;30.13;15.45;;;0.20;99.90;;;;;;5074290;28;20028;-76
2022/12/14 04:29:54;;;;;;;32.08;15.50;;;0.40;99.90;;;;;;5074752;28;20025;-74
2022/12/14 04:31:12;;;;;;;31.63;15.90;;;0.30;99.90;;;;;;5077071;28;20484;-76
2022/12/14 04:33:46;;;;;;;31.23;16.50;;;0.50;99.90;;;;;;5076935;28;20028;-75
2022/12/14 04:36:29;;;;;;;29.80;14.73;;;0.50;99.90;;;;;;5074680;28;20044;-74
2022/12/14 04:39:04;;;;;;;36.45;17.23;;;0.30;99.90;;;;;;5073561;28;20043;-75
2022/12/14 04:41:35;;;;;;;38.97;17.48;;;0.30;99.90;;;;;;5072934;28;20389;-75
2022/12/14 04:44:07;;;;;;;32.00;17.35;;;0.50;99.90;;;;;;5073807;28;20462;-74
2022/12/14 04:46:36;;;;;;;33.92;17.15;;;0.60;99.90;;;;;;5072038;28;20123;-73
2022/12/14 04:49:11;;;;;;;30.67;17.15;;;0.70;99.90;;;;;;5073708;28;20124;-75
2022/12/14 04:51:56;;;;;;;37.40;16.10;;;0.40;99.90;;;;;;5073554;28;20033;-75
2022/12/14 04:54:44;;;;;;;27.17;15.20;;;0.40;99.90;;;;;;5073659;28;20040;-75
2022/12/14 04:57:20;;;;;;;31.33;15.80;;;0.30;99.90;;;;;;5073309;28;20115;-75
2022/12/14 04:59:47;;;;;;;32.67;16.92;;;0.50;99.90;;;;;;5073202;28;20021;-75
2022/12/14 05:02:38;;;;;;;33.58;16.33;;;0.40;99.90;;;;;;5073419;28;20037;-75
2022/12/14 05:05:33;;;;;;;31.33;15.07;;;0.00;99.90;;;;;;5072989;28;20090;-76
2022/12/14 05:08:08;;;;;;;30.27;15.45;;;-0.20;99.90;;;;;;5071231;28;20463;-76
2022/12/14 05:10:46;;;;;;;33.08;15.15;;;0.10;99.90;;;;;;5073110;28;20111;-76
2022/12/14 05:13:29;;;;;;;33.05;15.55;;;0.20;99.90;;;;;;5073330;28;20465;-75
2022/12/14 05:15:57;;;;;;;30.23;16.35;;;-0.10;99.90;;;;;;5072630;28;20048;-76
2022/12/14 05:18:23;;;;;;;29.15;15.70;;;-0.10;99.90;;;;;;5072937;28;20037;-74
2022/12/14 05:20:49;;;;;;;27.80;15.18;;;-0.10;99.90;;;;;;5072595;28;20024;-74
2022/12/14 05:23:15;;;;;;;31.50;15.02;;;-0.30;99.90;;;;;;5072869;28;20546;-75
2022/12/14 05:25:42;;;;;;;28.23;15.60;;;-0.20;99.90;;;;;;5072911;28;20029;-75
2022/12/14 05:28:10;;;;;;;30.55;17.25;;;-0.20;99.90;;;;;;5071780;28;20381;-74
2022/12/14 05:30:36;;;;;;;31.58;15.82;;;0.00;99.90;;;;;;5072876;28;20028;-75
2022/12/14 05:33:01;;;;;;;30.25;15.40;;;0.00;99.90;;;;;;5072488;28;20112;-74
2022/12/14 05:35:27;;;;;;;40.13;16.77;;;0.00;99.90;;;;;;5071683;28;20112;-75
2022/12/14 05:37:53;;;;;;;42.92;20.83;;;0.10;99.90;;;;;;5075222;28;20036;-75
2022/12/14 05:40:19;;;;;;;43.42;20.60;;;0.10;99.90;;;;;;5072816;28;20043;-74
2022/12/14 05:42:44;;;;;;;37.95;18.80;;;0.10;99.90;;;;;;5072774;28;20032;-74
2022/12/14 05:45:11;;;;;;;34.42;17.15;;;0.00;99.90;;;;;;5072385;28;20035;-74
2022/12/14 05:47:37;;;;;;;30.23;15.45;;;0.10;99.90;;;;;;5072646;28;20119;-74
2022/12/14 05:50:03;;;;;;;31.77;16.05;;;0.00;99.90;;;;;;5072229;28;20101;-75
2022/12/14 05:52:29;;;;;;;30.17;15.52;;;0.00;99.90;;;;;;5071498;28;20021;-74
2022/12/14 05:54:55;;;;;;;24.63;14.18;;;-0.20;99.90;;;;;;5071013;28;20032;-74
2022/12/14 05:57:21;;;;;;;26.17;14.77;;;-0.30;99.90;;;;;;5072556;28;20473;-75
2022/12/14 05:59:47;;;;;;;30.55;16.25;;;-0.20;99.90;;;;;;5071560;28;20043;-74
2022/12/14 06:02:12;;;;;;;29.90;14.63;;;-0.30;99.90;;;;;;5072361;28;20047;-74
2022/12/14 06:04:38;;;;;;;29.20;15.18;;;-0.10;99.90;;;;;;5072469;28;20536;-74
2022/12/14 06:07:04;;;;;;;27.95;15.73;;;-0.10;99.90;;;;;;5071025;28;20033;-75
2022/12/14 06:09:30;;;;;;;30.08;15.45;;;0.10;99.90;;;;;;5072583;28;20043;-74
2022/12/14 06:11:55;;;;;;;31.92;15.73;;;0.20;99.90;;;;;;5072485;28;20119;-74
2022/12/14 06:14:23;;;;;;;32.78;16.27;;;0.20;99.90;;;;;;5072399;28;20032;-74
2022/12/14 06:16:48;;;;;;;31.63;15.85;;;0.10;99.90;;;;;;5072198;28;20033;-74
2022/12/14 06:19:15;;;;;;;30.73;14.93;;;0.10;99.90;;;;;;5070819;28;20031;-75
2022/12/14 06:21:42;;;;;;;25.63;14.63;;;0.10;99.90;;;;;;5072503;28;20029;-74
2022/12/14 06:24:10;;;;;;;33.22;15.73;;;0.20;99.90;;;;;;5072404;28;20032;-74
2022/12/14 06:26:36;;;;;;;31.88;15.20;;;0.20;99.90;;;;;;5072395;28;20020;-74
2022/12/14 06:29:03;;;;;;;27.40;16.15;;;0.20;99.90;;;;;;5071277;28;20070;-74
2022/12/14 06:31:31;;;;;;;33.42;16.02;;;0.60;99.90;;;;;;5072277;28;20521;-76
2022/12/14 06:33:59;;;;;;;26.92;15.77;;;0.80;99.90;;;;;;5072143;28;20056;-76
2022/12/14 06:36:27;;;;;;;26.27;15.07;;;0.70;99.90;;;;;;5072131;28;20045;-76
2022/12/14 06:38:54;;;;;;;30.90;16.20;;;0.80;99.90;;;;;;5072907;28;20029;-77
2022/12/14 06:41:21;;;;;;;34.05;16.17;;;0.60;99.90;;;;;;5071565;28;20458;-77
2022/12/14 06:43:47;;;;;;;28.40;14.93;;;0.60;99.90;;;;;;5071373;28;20538;-77
2022/12/14 06:46:15;;;;;;;34.80;16.05;;;0.30;99.90;;;;;;5071948;28;20020;-77
2022/12/14 06:48:42;;;;;;;28.90;15.30;;;0.30;99.90;;;;;;5057489;28;20538;-76
2022/12/14 06:51:08;;;;;;;36.55;17.02;;;0.20;99.90;;;;;;5075890;28;20051;-75
2022/12/14 06:53:34;;;;;;;30.65;16.50;;;0.30;99.90;;;;;;5075689;28;20028;-76
2022/12/14 06:56:11;;;;;;;34.67;17.00;;;0.40;99.90;;;;;;5075596;28;20537;-76
2022/12/14 06:58:37;;;;;;;33.30;16.27;;;0.40;99.90;;;;;;5075780;28;20578;-76
2022/12/14 07:01:08;;;;;;;30.42;16.17;;;0.30;99.90;;;;;;5074294;28;20029;-75
2022/12/14 07:03:34;;;;;;;34.03;15.55;;;0.10;99.90;;;;;;5073168;28;20488;-76
2022/12/14 07:06:02;;;;;;;37.80;16.25;;;-0.30;99.90;;;;;;5061543;28;20318;-76
2022/12/14 07:08:29;;;;;;;37.55;16.95;;;-0.30;99.90;;;;;;5072009;28;20150;-75
2022/12/14 07:10:55;;;;;;;31.10;17.73;;;-0.40;99.90;;;;;;5074514;28;20048;-75
2022/12/14 07:13:21;;;;;;;43.40;20.60;;;-0.20;99.90;;;;;;5074939;28;20009;-73
2022/12/14 07:15:52;;;;;;;42.40;22.75;;;-0.10;99.90;;;;;;5072345;28;20170;-74
2022/12/14 07:18:19;;;;;;;41.97;21.77;;;-0.10;99.90;;;;;;5074472;28;20036;-74
2022/12/14 07:20:57;;;;;;;45.85;20.00;;;-0.20;99.90;;;;;;5068578;28;20029;-73
2022/12/14 07:23:23;;;;;;;40.13;20.02;;;0.00;99.90;;;;;;5067240;28;20510;-73
2022/12/14 07:25:49;;;;;;;44.85;20.75;;;-0.10;99.90;;;;;;5074640;28;20107;-73
2022/12/14 07:28:15;;;;;;;36.30;19.15;;;-0.20;99.90;;;;;;5074316;28;20028;-73
2022/12/14 07:30:41;;;;;;;44.90;19.58;;;-0.20;99.90;;;;;;5074598;28;20578;-73
2022/12/14 07:33:06;;;;;;;40.90;19.80;;;-0.20;99.90;;;;;;5072930;28;20441;-73
2022/12/14 07:35:32;;;;;;;39.03;18.38;;;-0.10;99.90;;;;;;5074075;28;20162;-73
2022/12/14 07:37:58;;;;;;;37.67;19.05;;;0.20;99.90;;;;;;5073000;28;20082;-73
2022/12/14 07:40:24;;;;;;;32.58;17.55;;;0.20;99.90;;;;;;5073083;28;20043;-74
2022/12/14 07:42:49;;;;;;;37.13;18.75;;;-0.20;99.90;;;;;;5086973;28;20024;-73
2022/12/14 07:45:16;;;;;;;35.50;17.23;;;-0.40;99.90;;;;;;5077832;28;20138;-74
2022/12/14 07:47:41;;;;;;;34.58;19.02;;;-0.30;99.90;;;;;;5061729;28;20393;-73
2022/12/14 07:50:07;;;;;;;40.13;17.88;;;-0.40;99.90;;;;;;5067195;28;20028;-77
2022/12/14 07:52:33;;;;;;;40.35;19.58;;;-0.40;99.90;;;;;;5074286;28;20028;-76
2022/12/14 07:54:59;;;;;;;34.92;18.45;;;-0.60;99.90;;;;;;5073733;28;20025;-76
2022/12/14 07:57:25;;;;;;;37.13;19.25;;;-0.50;99.90;;;;;;5074255;28;20024;-75
2022/12/14 07:59:50;;;;;;;33.15;17.40;;;-0.40;99.90;;;;;;5077141;28;20024;-76
2022/12/14 08:02:16;;;;;;;39.95;19.33;;;-0.50;99.90;;;;;;5073702;28;20037;-76
2022/12/14 08:04:42;;;;;;;40.35;18.88;;;-0.30;99.90;;;;;;5073941;28;20048;-76
2022/12/14 08:07:08;;;;;;;36.42;18.13;;;-0.30;99.90;;;;;;5073970;28;20032;-74
2022/12/14 08:09:33;;;;;;;38.92;19.75;;;-0.50;99.90;;;;;;5073265;28;20032;-75
2022/12/14 08:11:59;;;;;;;40.70;18.42;;;-0.50;99.90;;;;;;5073671;28;20028;-74
2022/12/14 08:14:25;;;;;;;48.03;19.40;;;-0.50;99.90;;;;;;5073619;28;20043;-74
2022/12/14 08:16:51;;;;;;;47.67;19.10;;;-0.50;99.90;;;;;;5076641;28;20035;-74
2022/12/14 08:19:18;;;;;;;42.40;19.27;;;-1.00;99.90;;;;;;5071436;28;20110;-74
2022/12/14 08:21:47;;;;;;;45.25;19.38;;;-0.80;99.90;;;;;;5072274;28;20020;-75
2022/12/14 08:24:13;;;;;;;45.53;19.25;;;-0.80;99.90;;;;;;5074103;28;20122;-75
2022/12/14 08:26:39;;;;;;;42.95;19.85;;;-0.80;99.90;;;;;;5072648;28;20020;-78
2022/12/14 08:29:05;;;;;;;42.65;18.60;;;-0.70;99.90;;;;;;5072986;28;20025;-77
2022/12/14 08:31:32;;;;;;;50.72;19.55;;;-0.70;99.90;;;;;;5073731;28;20032;-78
2022/12/14 08:33:59;;;;;;;47.72;19.60;;;-0.70;99.90;;;;;;5072772;28;20027;-77
2022/12/14 08:36:34;;;;;;;49.13;20.95;;;-0.60;99.90;;;;;;5073690;28;20048;-76
2022/12/14 08:39:03;;;;;;;44.42;21.15;;;-0.50;99.90;;;;;;5073816;28;20081;-76
2022/12/14 08:41:29;;;;;;;43.28;19.92;;;-0.60;99.90;;;;;;5055724;28;20029;-75
2022/12/14 08:44:00;;;;;;;56.33;21.98;;;-0.60;99.90;;;;;;5073855;28;20047;-75
2022/12/14 08:46:28;;;;;;;40.88;19.27;;;-0.50;99.90;;;;;;5073708;28;20032;-75
2022/12/14 08:48:54;;;;;;;45.00;20.08;;;-0.40;99.90;;;;;;5065522;28;20113;-76
2022/12/14 08:51:22;;;;;;;45.60;19.30;;;-0.30;99.90;;;;;;5071487;28;20029;-76
2022/12/14 08:53:48;;;;;;;38.38;19.33;;;-0.20;99.90;;;;;;5066933;28;20024;-76
2022/12/14 08:56:18;;;;;;;41.00;20.73;;;-0.20;99.90;;;;;;5070269;28;20567;-76
2022/12/14 08:58:43;;;;;;;44.55;20.83;;;-0.10;99.90;;;;;;5072679;28;20428;-76
2022/12/14 09:01:15;;;;;;;44.63;20.75;;;0.30;99.90;;;;;;5073004;28;20028;-75
2022/12/14 09:03:43;;;;;;;40.00;19.42;;;0.60;99.90;;;;;;5073070;28;20078;-76
2022/12/14 09:06:22;;;;;;;40.72;18.38;;;1.00;99.90;;;;;;5072669;28;20368;-76
2022/12/14 09:08:48;;;;;;;42.78;17.77;;;1.40;99.90;;;;;;5072800;28;20029;-76
2022/12/14 09:11:16;;;;;;;36.17;18.48;;;1.80;99.90;;;;;;5070517;28;20025;-76
2022/12/14 09:13:42;;;;;;;32.30;17.52;;;2.30;99.90;;;;;;5069630;28;20020;-76
2022/12/14 09:16:14;;;;;;;38.28;16.48;;;2.20;99.90;;;;;;5054256;28;20067;-75
2022/12/14 09:18:40;;;;;;;32.55;15.45;;;2.20;99.90;;;;;;5071122;28;20041;-75
2022/12/14 09:21:07;;;;;;;30.48;15.38;;;3.00;99.90;;;;;;5072364;28;20017;-76
2022/12/14 09:23:34;;;;;;;38.13;16.77;;;3.50;99.90;;;;;;5072810;28;20035;-75
2022/12/14 09:26:01;;;;;;;34.35;16.63;;;4.10;99.90;;;;;;5071368;28;20119;-74
2022/12/14 09:28:27;;;;;;;43.83;16.92;;;4.60;99.90;;;;;;5070837;28;20025;-76
2022/12/14 09:30:57;;;;;;;39.95;15.98;;;4.80;99.90;;;;;;5072136;28;20085;-76
2022/12/14 09:33:24;;;;;;;33.75;16.33;;;4.50;99.90;;;;;;5072792;28;20469;-82
2022/12/14 09:35:50;;;;;;;32.67;14.77;;;3.90;99.90;;;;;;5070060;28;20476;-75
2022/12/14 09:38:15;;;;;;;27.58;14.48;;;3.80;99.90;;;;;;5072729;28;20100;-76
2022/12/14 09:40:47;;;;;;;25.05;13.88;;;5.00;99.90;;;;;;5072642;28;20032;-76
2022/12/14 09:43:36;;;;;;;28.42;14.13;;;4.20;99.90;;;;;;5072415;28;20025;-72
2022/12/14 09:46:28;;;;;;;34.78;16.48;;;3.90;99.90;;;;;;5072296;28;20033;-77
2022/12/14 09:48:55;;;;;;;31.77;14.80;;;4.30;99.90;;;;;;5062541;28;20029;-75
2022/12/14 09:51:28;;;;;;;25.70;13.20;;;4.90;99.90;;;;;;5071722;28;20492;-75
2022/12/14 09:54:01;;;;;;;27.58;13.88;;;4.20;99.90;;;;;;5066343;28;20037;-75
2022/12/14 09:56:27;;;;;;;27.88;13.30;;;4.40;99.90;;;;;;5071475;28;20425;-75
2022/12/14 09:58:56;;;;;;;28.13;12.93;;;4.50;99.90;;;;;;5075922;28;20025;-74
2022/12/14 10:01:21;;;;;;;23.42;13.50;;;4.90;99.90;;;;;;5071064;28;20473;-74
2022/12/14 10:04:13;;;;;;;24.17;14.18;;;5.00;99.90;;;;;;5072200;28;20085;-77
2022/12/14 10:07:10;;;;;;;24.90;13.75;;;5.50;99.90;;;;;;5069938;28;20047;-76
2022/12/14 10:09:55;;;;;;;26.25;14.43;;;5.90;99.40;;;;;;5072066;28;20043;-75
2022/12/14 10:12:32;;;;;;;21.88;13.40;;;6.10;99.40;;;;;;5073312;28;20028;-75
2022/12/14 10:15:05;;;;;;;24.55;13.00;;;5.90;98.00;;;;;;5063128;28;20030;-76
2022/12/14 10:17:54;;;;;;;26.55;14.00;;;6.30;98.60;;;;;;5068116;28;20037;-75
2022/12/14 10:20:35;;;;;;;27.13;15.40;;;5.50;98.30;;;;;;5072553;28;20086;-76
2022/12/14 10:23:02;;;;;;;23.20;14.15;;;5.40;98.90;;;;;;5076578;28;20039;-76
2022/12/14 10:25:33;;;;;;;25.00;14.98;;;5.20;99.30;;;;;;5074909;28;20112;-76
2022/12/14 10:28:13;;;;;;;31.38;14.38;;;5.30;99.20;;;;;;5074806;28;20082;-75
2022/12/14 10:30:42;;;;;;;24.02;13.52;;;6.10;99.00;;;;;;5078103;28;20449;-76
2022/12/14 10:33:19;;;;;;;23.52;14.02;;;6.10;97.00;;;;;;5075757;28;20078;-76
2022/12/14 10:36:14;;;;;;;24.27;13.57;;;6.30;98.10;;;;;;5075972;28;20569;-76
2022/12/14 10:38:44;;;;;;;25.58;12.93;;;7.20;96.90;;;;;;5075520;28;20550;-75
2022/12/14 10:41:17;;;;;;;36.88;15.05;;;7.40;96.10;;;;;;5075416;28;20017;-76
2022/12/14 10:43:54;;;;;;;23.45;13.10;;;8.00;95.30;;;;;;5066961;28;20480;-76
2022/12/14 10:46:21;;;;;;;23.80;12.80;;;8.30;95.00;;;;;;5075243;28;20028;-75
2022/12/14 10:48:59;;;;;;;21.20;12.30;;;7.10;95.30;;;;;;5074648;28;20056;-76
2022/12/14 10:51:37;;;;;;;20.48;12.23;;;6.40;95.70;;;;;;5074169;28;20646;-76
2022/12/14 10:54:09;;;;;;;27.40;13.50;;;6.90;96.00;;;;;;5051692;28;20568;-75
2022/12/14 10:56:40;;;;;;;24.20;12.43;;;7.10;95.80;;;;;;5073678;28;20140;-76
2022/12/14 10:59:19;;;;;;;26.15;13.77;;;7.30;95.00;;;;;;5073797;28;20029;-76
2022/12/14 11:01:48;;;;;;;28.23;13.23;;;6.40;96.10;;;;;;5073730;28;20086;-76
2022/12/14 11:04:31;;;;;;;26.33;12.65;;;7.30;95.90;;;;;;5075100;28;20097;-76
2022/12/14 11:07:03;;;;;;;32.65;13.60;;;7.10;95.30;;;;;;5066206;28;20168;-75
2022/12/14 11:09:29;;;;;;;38.47;14.65;;;6.80;95.20;;;;;;5074740;28;20025;-76
2022/12/14 11:12:13;;;;;;;29.85;14.07;;;6.70;95.70;;;;;;5074954;28;20097;-76
2022/12/14 11:15:01;;;;;;;26.70;11.98;;;7.40;95.90;;;;;;5072424;28;20390;-76
2022/12/14 11:17:34;;;;;;;36.20;13.18;;;7.70;95.60;;;;;;5068278;28;20028;-76
2022/12/14 11:20:14;;;;;;;25.05;13.30;;;7.90;95.00;;;;;;5073739;28;20112;-76
2022/12/14 11:23:03;;;;;;;25.13;12.90;;;8.70;93.80;;;;;;5072381;28;20092;-77
2022/12/14 11:25:38;;;;;;;22.35;11.02;;;8.80;93.70;;;;;;5074107;28;20067;-78
2022/12/14 11:28:34;;;;;;;27.45;11.73;;;8.50;93.60;;;;;;5073261;28;20031;-78
2022/12/14 11:31:19;;;;;;;18.77;11.13;;;8.50;93.40;;;;;;5068232;28;20021;-78
2022/12/14 11:33:54;;;;;;;47.45;21.25;;;8.60;93.40;;;;;;5063678;28;20036;-78
2022/12/14 11:36:24;;;;;;;25.33;15.43;;;9.10;93.00;;;;;;5074224;28;20036;-77
2022/12/14 11:39:03;;;;;;;27.65;12.93;;;9.10;92.80;;;;;;5064071;28;20017;-77
2022/12/14 11:41:37;;;;;;;41.10;12.85;;;9.70;92.40;;;;;;5068958;28;20075;-78
2022/12/14 11:44:17;;;;;;;21.70;13.32;;;9.10;93.00;;;;;;5073063;28;20063;-78
2022/12/14 11:46:48;;;;;;;20.50;12.00;;;9.00;92.40;;;;;;5074245;28;20086;-78
2022/12/14 11:49:39;;;;;;;26.77;12.30;;;9.50;92.00;;;;;;5072574;28;20028;-78
2022/12/14 11:52:04;;;;;;;21.88;13.02;;;9.80;91.90;;;;;;5064516;28;20032;-78
2022/12/14 11:54:36;;;;;;;27.17;11.57;;;9.80;91.90;;;;;;5071494;28;20416;-78
2022/12/14 11:57:09;;;;;;;34.55;11.75;;;9.80;91.50;;;;;;5074010;28;20028;-78
2022/12/14 11:59:44;;;;;;;19.35;10.45;;;9.20;91.60;;;;;;5064266;28;20055;-78
2022/12/14 12:02:27;;;;;;;19.80;11.95;;;9.80;91.80;;;;;;5074222;28;20444;-78
2022/12/14 12:04:58;;;;;;;19.98;10.95;;;9.00;92.80;;;;;;5062524;28;20381;-76
2022/12/14 12:07:31;;;;;;;21.23;11.18;;;9.40;92.30;;;;;;5073499;28;20031;-78
2022/12/14 12:10:12;;;;;;;18.92;11.35;;;10.00;91.40;;;;;;5073907;28;20657;-78
2022/12/14 12:12:48;;;;;;;21.60;12.10;;;9.70;91.40;;;;;;5072231;28;20129;-78
2022/12/14 12:15:21;;;;;;;20.38;11.38;;;9.10;91.50;;;;;;5078952;28;20040;-77
2022/12/14 12:17:52;;;;;;;23.70;12.20;;;9.10;92.00;;;;;;5077518;28;20405;-78
2022/12/14 12:20:26;;;;;;;22.13;11.57;;;10.30;91.50;;;;;;5074201;28;20033;-77
2022/12/14 12:23:05;;;;;;;23.67;11.43;;;10.20;91.60;;;;;;5072521;28;20033;-77
2022/12/14 12:25:33;;;;;;;20.95;11.18;;;10.50;91.10;;;;;;5073903;28;20079;-77
2022/12/14 12:28:07;;;;;;;21.48;11.48;;;9.80;90.90;;;;;;5073975;28;20024;-76
2022/12/14 12:30:38;;;;;;;21.08;11.25;;;9.40;91.50;;;;;;5073853;28;20024;-75
2022/12/14 12:33:18;;;;;;;18.55;11.80;;;9.90;91.10;;;;;;5073877;28;20039;-77
2022/12/14 12:35:53;;;;;;;19.25;10.98;;;9.90;91.40;;;;;;5055600;28;20139;-77
2022/12/14 12:38:27;;;;;;;23.00;11.27;;;10.50;90.80;;;;;;5072478;28;20028;-77
2022/12/14 12:41:21;;;;;;;22.25;11.90;;;11.40;90.30;;;;;;5072277;28;20388;-75
2022/12/14 12:43:53;;;;;;;25.92;11.32;;;9.90;90.30;;;;;;5060310;28;20040;-76
2022/12/14 12:46:25;;;;;;;18.60;11.82;;;10.00;90.80;;;;;;5073264;28;20042;-76
2022/12/14 12:49:13;;;;;;;17.70;11.23;;;9.60;90.70;;;;;;5073512;28;20060;-76
2022/12/14 12:51:45;;;;;;;21.13;11.85;;;9.90;90.60;;;;;;5073017;28;20121;-76
2022/12/14 12:54:16;;;;;;;26.38;11.82;;;10.50;90.30;;;;;;5073189;28;20086;-76
2022/12/14 12:56:51;;;;;;;19.42;10.60;;;10.60;90.20;;;;;;5072878;28;20075;-77
2022/12/14 12:59:28;;;;;;;20.23;11.88;;;11.90;88.90;;;;;;5073029;28;20024;-76
2022/12/14 13:01:58;;;;;;;27.23;11.35;;;12.30;86.70;;;;;;5073441;28;20369;-77
2022/12/14 13:04:39;;;;;;;20.75;11.98;;;11.50;87.30;;;;;;5072878;28;20027;-76
2022/12/14 13:07:22;;;;;;;21.85;11.63;;;11.50;87.30;;;;;;5072955;28;20095;-76
2022/12/14 13:10:11;;;;;;;25.85;13.07;;;11.70;86.80;;;;;;5055111;28;20465;-76